Time;durP1;ratioP1;P1;durP2;ratioP2;P2;SDS_P1;SDS_P2;PMS_P1;PMS_P2;Temp;Humidity;BMP_temperature;BMP_pressure;BME280_temperature;BME280_humidity;BME280_pressure;Samples;Min_cycle;Max_cycle;Signal;HPM_P1;HPM_P2
2023/03/11 00:00:32;;;;;;;6.55;2.22;;;0.30;99.90;;;;;;5054240;28;20090;-82
2023/03/11 00:03:00;;;;;;;14.13;2.80;;;0.30;99.90;;;;;;5065054;28;20486;-81
2023/03/11 00:05:29;;;;;;;13.57;2.03;;;0.30;99.90;;;;;;5056726;28;20088;-81
2023/03/11 00:07:55;;;;;;;9.60;2.25;;;0.30;99.90;;;;;;5070564;28;20041;-80
2023/03/11 00:10:30;;;;;;;11.70;2.50;;;0.20;99.90;;;;;;5055749;28;20508;-82
2023/03/11 00:12:57;;;;;;;10.02;2.55;;;0.30;99.90;;;;;;5062588;28;20040;-81
2023/03/11 00:15:23;;;;;;;11.80;2.33;;;0.20;99.90;;;;;;5057622;28;20135;-81
2023/03/11 00:17:50;;;;;;;11.57;2.70;;;0.20;99.90;;;;;;5071638;28;20040;-81
2023/03/11 00:20:37;;;;;;;8.77;3.05;;;0.20;99.90;;;;;;5070501;28;20101;-81
2023/03/11 00:23:06;;;;;;;9.73;2.13;;;0.20;99.90;;;;;;5070236;28;20056;-81
2023/03/11 00:25:33;;;;;;;9.90;2.50;;;0.20;99.90;;;;;;5060013;28;20052;-81
2023/03/11 00:27:59;;;;;;;11.50;2.42;;;0.20;99.90;;;;;;5076581;28;20044;-81
2023/03/11 00:30:26;;;;;;;11.48;3.15;;;0.10;99.90;;;;;;5070664;28;20447;-81
2023/03/11 00:32:55;;;;;;;9.32;2.70;;;0.20;99.90;;;;;;5071374;28;20045;-81
2023/03/11 00:35:24;;;;;;;9.80;3.40;;;0.10;99.90;;;;;;5070284;28;20051;-82
2023/03/11 00:37:54;;;;;;;10.32;2.40;;;0.20;99.90;;;;;;5069310;28;20055;-81
2023/03/11 00:40:21;;;;;;;9.15;2.63;;;0.10;99.90;;;;;;5062767;28;20052;-82
2023/03/11 00:42:47;;;;;;;6.30;2.17;;;0.10;99.90;;;;;;5071031;28;20040;-82
2023/03/11 00:45:13;;;;;;;7.95;2.25;;;0.10;99.90;;;;;;5069616;28;20047;-82
2023/03/11 00:47:39;;;;;;;7.75;2.15;;;0.10;99.90;;;;;;5071729;28;20048;-83
2023/03/11 00:50:06;;;;;;;13.43;2.33;;;0.10;99.90;;;;;;5068549;28;20055;-82
2023/03/11 00:52:32;;;;;;;6.68;1.98;;;0.10;99.90;;;;;;5043836;28;20047;-83
2023/03/11 00:54:58;;;;;;;9.45;2.25;;;0.10;99.90;;;;;;5058434;28;20040;-82
2023/03/11 00:57:26;;;;;;;9.00;2.30;;;0.10;99.90;;;;;;5053591;28;20044;-82
2023/03/11 00:59:52;;;;;;;9.88;2.42;;;0.00;99.90;;;;;;5062995;28;20138;-82
2023/03/11 01:02:18;;;;;;;12.23;3.60;;;0.10;99.90;;;;;;5062229;28;20080;-82
2023/03/11 01:04:43;;;;;;;9.68;2.30;;;0.00;99.90;;;;;;5064724;28;20121;-81
2023/03/11 01:07:09;;;;;;;9.35;2.38;;;0.00;99.90;;;;;;5057940;28;20041;-82
2023/03/11 01:09:35;;;;;;;14.05;2.53;;;0.00;99.90;;;;;;5053216;28;20068;-83
2023/03/11 01:12:00;;;;;;;7.93;2.30;;;0.00;99.90;;;;;;5067253;28;20124;-83
2023/03/11 01:14:26;;;;;;;9.63;1.77;;;0.00;99.90;;;;;;5070278;28;20063;-83
2023/03/11 01:16:53;;;;;;;7.05;1.48;;;0.00;99.90;;;;;;5069428;28;20053;-82
2023/03/11 01:19:19;;;;;;;10.43;2.95;;;0.00;99.90;;;;;;5044595;28;20487;-82
2023/03/11 01:21:45;;;;;;;7.35;2.30;;;0.00;99.90;;;;;;5036623;28;20076;-84
2023/03/11 01:24:10;;;;;;;6.38;2.00;;;0.00;99.90;;;;;;5027619;28;20044;-84
2023/03/11 01:26:36;;;;;;;12.23;1.50;;;-0.10;99.90;;;;;;5053229;28;20080;-82
2023/03/11 01:29:02;;;;;;;7.40;2.33;;;-0.10;99.90;;;;;;5069002;28;20040;-82
2023/03/11 01:31:28;;;;;;;8.70;2.13;;;-0.20;99.90;;;;;;5066605;28;20124;-81
2023/03/11 01:33:54;;;;;;;9.63;1.80;;;-0.10;99.90;;;;;;5053916;28;20128;-82
2023/03/11 01:36:19;;;;;;;9.65;1.58;;;-0.10;99.90;;;;;;5052561;28;20120;-82
2023/03/11 01:38:45;;;;;;;10.98;2.45;;;-0.20;99.90;;;;;;5066782;28;20075;-83
2023/03/11 01:41:11;;;;;;;7.13;1.73;;;-0.10;99.90;;;;;;5080247;28;20076;-82
2023/03/11 01:43:43;;;;;;;9.70;1.55;;;-0.20;99.90;;;;;;5039774;28;20151;-83
2023/03/11 01:46:13;;;;;;;11.32;2.13;;;-0.20;99.90;;;;;;5060806;28;20497;-82
2023/03/11 01:48:43;;;;;;;10.93;1.75;;;-0.20;99.90;;;;;;5069866;28;20442;-82
2023/03/11 01:51:09;;;;;;;9.85;1.88;;;-0.20;99.90;;;;;;5069757;28;20045;-82
2023/03/11 01:53:35;;;;;;;6.85;2.38;;;-0.20;99.90;;;;;;5069181;28;20494;-83
2023/03/11 01:56:04;;;;;;;5.85;1.40;;;-0.20;99.90;;;;;;5046615;28;20045;-82
2023/03/11 01:58:43;;;;;;;6.47;1.38;;;-0.20;99.90;;;;;;5047467;28;20094;-83
2023/03/11 02:01:10;;;;;;;8.13;1.70;;;-0.20;99.90;;;;;;5063595;28;20541;-82
2023/03/11 02:03:38;;;;;;;7.03;1.40;;;-0.20;99.90;;;;;;5036232;28;20084;-83
2023/03/11 02:06:12;;;;;;;6.78;1.30;;;-0.30;99.90;;;;;;5069806;28;20059;-85
2023/03/11 02:08:40;;;;;;;6.35;1.30;;;-0.30;99.90;;;;;;5052224;28;20852;-84
2023/03/11 02:11:09;;;;;;;5.80;1.13;;;-0.20;99.90;;;;;;5071426;28;20048;-82
2023/03/11 02:13:38;;;;;;;7.93;1.30;;;-0.20;99.90;;;;;;5066946;28;20052;-82
2023/03/11 02:16:04;;;;;;;7.25;1.20;;;-0.30;99.90;;;;;;5060936;28;20057;-82
2023/03/11 02:18:30;;;;;;;6.95;1.73;;;-0.30;99.90;;;;;;5071709;28;20124;-82
2023/03/11 02:21:27;;;;;;;8.27;1.02;;;-0.30;99.90;;;;;;5070857;28;20057;-83
2023/03/11 02:24:12;;;;;;;7.78;1.30;;;-0.40;99.90;;;;;;5070573;28;20036;-81
2023/03/11 02:27:10;;;;;;;7.55;1.08;;;-0.40;99.90;;;;;;5064316;28;20048;-83
2023/03/11 02:29:37;;;;;;;2.45;1.38;;;-0.40;99.90;;;;;;5072175;28;20529;-82
2023/03/11 02:32:06;;;;;;;4.00;1.10;;;-0.40;99.90;;;;;;5073294;28;20052;-82
2023/03/11 02:34:34;;;;;;;8.45;1.17;;;-0.40;99.90;;;;;;5072972;28;20532;-82
2023/03/11 02:37:09;;;;;;;6.72;1.02;;;-0.50;99.90;;;;;;5071531;28;20049;-83
2023/03/11 02:39:40;;;;;;;7.97;1.40;;;-0.50;99.90;;;;;;5067961;28;20087;-81
2023/03/11 02:42:18;;;;;;;6.07;1.13;;;-0.60;99.90;;;;;;5062793;28;20049;-81
2023/03/11 02:44:48;;;;;;;5.68;1.30;;;-0.60;99.90;;;;;;5070926;28;20041;-82
2023/03/11 02:47:15;;;;;;;2.65;1.02;;;-0.70;99.90;;;;;;5056433;28;20049;-82
2023/03/11 02:49:41;;;;;;;6.22;1.27;;;-0.70;99.90;;;;;;5052725;28;20043;-83
2023/03/11 02:52:07;;;;;;;2.95;1.05;;;-0.80;99.90;;;;;;5066173;28;20048;-83
2023/03/11 02:54:32;;;;;;;2.80;1.02;;;-0.80;99.90;;;;;;5039063;28;20086;-83
2023/03/11 02:56:58;;;;;;;6.47;1.42;;;-0.80;99.90;;;;;;5070417;28;20074;-84
2023/03/11 02:59:24;;;;;;;4.60;1.10;;;-0.90;99.90;;;;;;5055155;28;20066;-83
2023/03/11 03:01:49;;;;;;;5.90;1.10;;;-0.90;99.90;;;;;;5076075;28;20547;-82
2023/03/11 03:04:15;;;;;;;5.60;1.13;;;-0.90;99.90;;;;;;5061382;28;20052;-83
2023/03/11 03:06:41;;;;;;;3.67;0.88;;;-1.00;99.90;;;;;;5045358;28;20046;-83
2023/03/11 03:09:06;;;;;;;4.22;1.27;;;-1.00;99.90;;;;;;5065025;28;20052;-82
2023/03/11 03:11:32;;;;;;;3.47;0.80;;;-1.10;99.90;;;;;;5070205;28;20040;-81
2023/03/11 03:13:58;;;;;;;5.50;1.13;;;-1.10;99.90;;;;;;5074024;28;20482;-82
2023/03/11 03:16:24;;;;;;;5.28;1.20;;;-1.20;99.90;;;;;;5058826;28;20056;-84
2023/03/11 03:18:51;;;;;;;6.13;1.25;;;-1.20;99.90;;;;;;5055075;28;20051;-82
2023/03/11 03:21:17;;;;;;;5.90;1.42;;;-1.20;99.90;;;;;;5071018;28;20071;-82
2023/03/11 03:23:42;;;;;;;4.00;1.30;;;-1.30;99.90;;;;;;5042872;28;20525;-83
2023/03/11 03:26:12;;;;;;;3.90;1.98;;;-1.30;99.90;;;;;;5046656;28;20055;-83
2023/03/11 03:28:38;;;;;;;7.30;3.00;;;-1.30;99.90;;;;;;5075176;28;20817;-81
2023/03/11 03:31:07;;;;;;;12.18;3.97;;;-1.30;99.90;;;;;;5055438;28;20060;-82
2023/03/11 03:33:33;;;;;;;16.35;5.90;;;-1.30;99.90;;;;;;5078232;28;20131;-82
2023/03/11 03:35:59;;;;;;;12.13;6.03;;;-1.30;99.90;;;;;;5079816;28;20115;-82
2023/03/11 03:38:24;;;;;;;13.52;5.90;;;-1.20;99.90;;;;;;5053833;28;20389;-81
2023/03/11 03:40:50;;;;;;;12.48;5.03;;;-1.30;99.90;;;;;;5061616;28;20136;-83
2023/03/11 03:43:17;;;;;;;9.40;4.57;;;-1.30;99.90;;;;;;5054257;28;20082;-87
2023/03/11 03:45:43;;;;;;;7.63;3.95;;;-1.30;99.90;;;;;;5067283;28;20053;-82
2023/03/11 03:48:08;;;;;;;10.18;3.58;;;-1.30;99.90;;;;;;5052899;28;20052;-86
2023/03/11 03:50:34;;;;;;;4.95;2.13;;;-1.40;99.90;;;;;;5058755;28;20044;-83
2023/03/11 03:52:59;;;;;;;7.22;1.90;;;-1.40;99.90;;;;;;5057732;28;20044;-82
2023/03/11 03:55:25;;;;;;;5.20;1.38;;;-1.50;99.90;;;;;;5054844;28;20095;-82
2023/03/11 03:57:51;;;;;;;8.55;1.20;;;-1.60;99.90;;;;;;5052604;28;20074;-82
2023/03/11 04:00:17;;;;;;;4.00;1.20;;;-1.60;99.90;;;;;;5056190;28;20069;-81
2023/03/11 04:02:42;;;;;;;6.57;1.40;;;-1.60;99.90;;;;;;5078951;28;20076;-84
2023/03/11 04:05:09;;;;;;;7.20;2.03;;;-1.70;99.90;;;;;;5072087;28;20068;-82
2023/03/11 04:07:35;;;;;;;8.23;1.48;;;-1.80;99.90;;;;;;5074320;28;20550;-86
2023/03/11 04:10:01;;;;;;;6.65;1.15;;;-1.80;99.90;;;;;;5064971;28;20051;-83
2023/03/11 04:12:27;;;;;;;2.97;1.08;;;-1.80;99.90;;;;;;5061826;28;20121;-82
2023/03/11 04:14:53;;;;;;;2.60;0.95;;;-1.90;99.90;;;;;;5070759;28;20119;-82
2023/03/11 04:17:18;;;;;;;2.92;1.00;;;-1.90;99.90;;;;;;5059360;28;20056;-82
2023/03/11 04:19:44;;;;;;;4.18;1.05;;;-1.90;99.90;;;;;;5048682;28;20037;-83
2023/03/11 04:22:09;;;;;;;5.63;1.20;;;-1.90;99.90;;;;;;5071486;28;20048;-89
2023/03/11 04:24:35;;;;;;;5.15;1.00;;;-2.00;99.90;;;;;;5038226;28;20075;-85
2023/03/11 04:27:01;;;;;;;4.13;1.00;;;-2.00;99.90;;;;;;5058991;28;20052;-82
2023/03/11 04:29:27;;;;;;;2.85;1.02;;;-2.00;99.90;;;;;;5037963;28;20053;-81
2023/03/11 04:31:52;;;;;;;4.07;1.00;;;-2.00;99.90;;;;;;5076764;28;20077;-81
2023/03/11 04:34:18;;;;;;;3.47;1.13;;;-2.00;99.90;;;;;;5036322;28;20051;-82
2023/03/11 04:36:44;;;;;;;4.68;1.33;;;-2.00;99.90;;;;;;5044510;28;20041;-82
2023/03/11 04:39:09;;;;;;;3.08;1.10;;;-2.10;99.90;;;;;;5064481;28;20048;-82
2023/03/11 04:41:35;;;;;;;6.53;1.30;;;-2.00;99.90;;;;;;5051669;28;20056;-82
2023/03/11 04:44:01;;;;;;;4.63;1.23;;;-2.10;99.90;;;;;;5066842;28;20045;-83
2023/03/11 04:46:27;;;;;;;7.70;1.00;;;-2.10;99.90;;;;;;5071682;28;20051;-85
2023/03/11 04:48:52;;;;;;;2.00;0.85;;;-2.10;99.90;;;;;;5049107;28;20041;-82
2023/03/11 04:51:18;;;;;;;3.15;1.00;;;-2.10;99.90;;;;;;5054677;28;20439;-83
2023/03/11 04:53:44;;;;;;;4.50;1.35;;;-2.20;99.90;;;;;;5054670;28;20489;-83
2023/03/11 04:56:09;;;;;;;2.63;1.17;;;-2.20;99.90;;;;;;5072339;28;20041;-82
2023/03/11 04:58:35;;;;;;;4.40;1.23;;;-2.30;99.90;;;;;;5075077;28;20146;-83
2023/03/11 05:01:01;;;;;;;5.63;1.10;;;-2.30;99.90;;;;;;5081085;28;20480;-82
2023/03/11 05:03:27;;;;;;;5.82;1.20;;;-2.30;99.90;;;;;;5052468;28;20071;-82
2023/03/11 05:05:55;;;;;;;4.07;0.90;;;-2.30;99.90;;;;;;5054418;28;20083;-83
2023/03/11 05:08:24;;;;;;;4.25;1.00;;;-2.40;99.90;;;;;;5070912;28;20457;-84
2023/03/11 05:10:51;;;;;;;4.00;0.90;;;-2.40;99.90;;;;;;5049283;28;20048;-85
2023/03/11 05:13:18;;;;;;;8.57;1.45;;;-2.40;99.90;;;;;;5054545;28;20127;-82
2023/03/11 05:15:45;;;;;;;2.97;0.95;;;-2.40;99.90;;;;;;5057901;28;20401;-89
2023/03/11 05:18:11;;;;;;;2.67;1.20;;;-2.50;99.90;;;;;;5054076;28;20072;-83
2023/03/11 05:20:37;;;;;;;9.13;1.20;;;-2.50;99.90;;;;;;5077355;28;20079;-83
2023/03/11 05:23:03;;;;;;;3.40;1.30;;;-2.50;99.90;;;;;;5052728;28;20848;-84
2023/03/11 05:25:29;;;;;;;3.20;1.10;;;-2.50;99.90;;;;;;5053977;28;20040;-83
2023/03/11 05:27:55;;;;;;;6.25;1.40;;;-2.50;99.90;;;;;;5033846;28;20056;-83
2023/03/11 05:30:20;;;;;;;4.07;1.17;;;-2.60;99.90;;;;;;5055286;28;20048;-85
2023/03/11 05:32:47;;;;;;;5.85;1.23;;;-2.60;99.90;;;;;;5035207;28;20134;-89
2023/03/11 05:35:13;;;;;;;5.30;1.52;;;-2.60;99.90;;;;;;5069757;28;20041;-90
2023/03/11 05:37:39;;;;;;;1.55;0.90;;;-2.60;99.90;;;;;;5053713;28;20117;-83
2023/03/11 05:40:06;;;;;;;6.90;0.98;;;-2.60;99.90;;;;;;5036300;28;20539;-84
2023/03/11 05:42:33;;;;;;;10.13;1.60;;;-2.70;99.90;;;;;;5056767;28;20060;-83
2023/03/11 05:44:59;;;;;;;5.10;1.30;;;-2.70;99.90;;;;;;5057284;28;20048;-83
2023/03/11 05:47:24;;;;;;;5.15;1.45;;;-2.70;99.90;;;;;;5067697;28;20041;-83
2023/03/11 05:49:50;;;;;;;4.25;1.20;;;-2.70;99.90;;;;;;5068292;28;20482;-84
2023/03/11 05:52:16;;;;;;;3.47;1.00;;;-2.70;99.90;;;;;;5053877;28;20052;-85
2023/03/11 05:54:42;;;;;;;6.07;0.95;;;-2.70;99.90;;;;;;5056845;28;20036;-83
2023/03/11 05:57:07;;;;;;;5.15;1.23;;;-2.70;99.90;;;;;;5073265;28;20036;-83
2023/03/11 05:59:34;;;;;;;4.18;1.23;;;-2.70;99.90;;;;;;5056843;28;20041;-84
2023/03/11 06:02:00;;;;;;;3.08;1.10;;;-2.70;99.90;;;;;;5057248;28;20127;-83
2023/03/11 06:04:26;;;;;;;4.93;1.60;;;-2.70;99.90;;;;;;5056082;28;20052;-83
2023/03/11 06:06:52;;;;;;;5.90;1.70;;;-2.80;99.90;;;;;;5065746;28;20051;-86
2023/03/11 06:09:17;;;;;;;2.13;1.05;;;-2.80;99.90;;;;;;5069124;28;20053;-84
2023/03/11 06:11:43;;;;;;;5.13;1.05;;;-2.80;99.90;;;;;;5036565;28;20120;-85
2023/03/11 06:14:12;;;;;;;4.35;1.20;;;-2.80;99.90;;;;;;5057127;28;20044;-84
2023/03/11 06:16:38;;;;;;;5.20;1.23;;;-2.80;99.90;;;;;;5046582;28;20127;-83
2023/03/11 06:19:05;;;;;;;5.00;1.40;;;-2.80;99.90;;;;;;5071313;28;20044;-85
2023/03/11 06:21:31;;;;;;;5.63;1.00;;;-2.80;99.90;;;;;;5060954;28;20539;-84
2023/03/11 06:23:56;;;;;;;1.92;1.13;;;-2.80;99.90;;;;;;5073530;28;20052;-83
2023/03/11 06:26:22;;;;;;;5.03;1.50;;;-2.80;99.90;;;;;;5064763;28;20056;-83
2023/03/11 06:28:50;;;;;;;2.53;1.08;;;-2.80;99.90;;;;;;5055889;28;20059;-83
2023/03/11 06:31:25;;;;;;;4.40;1.30;;;-2.80;99.90;;;;;;5069269;28;20102;-83
2023/03/11 06:33:51;;;;;;;3.30;1.17;;;-2.80;99.90;;;;;;5068127;28;20044;-85
2023/03/11 06:36:18;;;;;;;7.20;1.27;;;-2.80;99.90;;;;;;5068692;28;20049;-86
2023/03/11 06:38:45;;;;;;;3.80;1.23;;;-2.80;99.90;;;;;;5061560;28;20123;-88
2023/03/11 06:41:11;;;;;;;9.23;3.20;;;-2.80;99.90;;;;;;5040866;28;20456;-88
2023/03/11 06:43:37;;;;;;;20.92;5.60;;;-2.70;99.90;;;;;;5034766;28;20045;-84
2023/03/11 06:46:12;;;;;;;23.20;8.00;;;-2.70;99.90;;;;;;5031016;28;20545;-85
2023/03/11 06:48:37;;;;;;;21.35;8.63;;;-2.70;99.90;;;;;;5068576;28;20045;-85
2023/03/11 06:51:04;;;;;;;10.73;4.00;;;-2.70;99.90;;;;;;5063317;28;20593;-85
2023/03/11 06:53:30;;;;;;;8.88;4.38;;;-2.70;99.90;;;;;;5065756;28;20036;-80
2023/03/11 06:56:00;;;;;;;6.38;3.38;;;-2.70;99.90;;;;;;5063047;28;20516;-89
2023/03/11 06:58:27;;;;;;;15.75;5.15;;;-2.60;99.90;;;;;;5064440;28;20102;-83
2023/03/11 07:00:52;;;;;;;17.17;5.28;;;-2.60;99.90;;;;;;5061491;28;20052;-87
2023/03/11 07:03:18;;;;;;;19.92;7.65;;;-2.60;99.90;;;;;;5065941;28;20146;-85
2023/03/11 07:05:44;;;;;;;9.60;5.03;;;-2.50;99.90;;;;;;5069040;28;20074;-86
2023/03/11 07:08:10;;;;;;;14.75;4.00;;;-2.50;99.90;;;;;;5064170;28;20045;-85
2023/03/11 07:10:35;;;;;;;10.07;3.10;;;-2.50;99.90;;;;;;5053399;28;20060;-85
2023/03/11 07:13:01;;;;;;;7.05;2.80;;;-2.40;99.90;;;;;;5053171;28;20094;-84
2023/03/11 07:15:27;;;;;;;11.55;2.92;;;-2.40;99.90;;;;;;5037266;28;20052;-86
2023/03/11 07:17:53;;;;;;;7.97;2.67;;;-2.40;99.90;;;;;;5052801;28;20040;-86
2023/03/11 07:20:18;;;;;;;9.55;4.55;;;-2.40;99.90;;;;;;5068792;28;20743;-87
2023/03/11 07:22:44;;;;;;;7.35;3.33;;;-2.30;99.90;;;;;;5069398;28;20044;-86
2023/03/11 07:25:10;;;;;;;17.05;4.85;;;-2.30;99.90;;;;;;5058243;28;20056;-86
2023/03/11 07:27:35;;;;;;;31.67;10.07;;;-2.30;99.90;;;;;;5062143;28;20053;-85
2023/03/11 07:30:01;;;;;;;46.03;14.20;;;-2.30;99.90;;;;;;5036223;28;20135;-86
2023/03/11 07:32:27;;;;;;;51.67;16.15;;;-2.20;99.90;;;;;;5068255;28;20052;-85
2023/03/11 07:34:53;;;;;;;39.17;13.68;;;-2.20;99.90;;;;;;5059973;28;20517;-85
2023/03/11 07:37:19;;;;;;;53.03;15.45;;;-2.10;99.90;;;;;;5061886;28;20049;-86
2023/03/11 07:39:44;;;;;;;26.75;8.02;;;-2.10;99.90;;;;;;5034061;28;20048;-86
2023/03/11 07:42:10;;;;;;;21.27;6.78;;;-2.10;99.90;;;;;;5051288;28;20045;-85
2023/03/11 07:44:36;;;;;;;22.15;8.45;;;-2.00;99.90;;;;;;5036200;28;20094;-85
2023/03/11 07:47:05;;;;;;;13.48;6.15;;;-1.90;99.90;;;;;;5042641;28;20083;-85
2023/03/11 07:49:31;;;;;;;12.70;5.25;;;-1.90;99.90;;;;;;5041492;28;20090;-86
2023/03/11 07:51:57;;;;;;;27.10;9.55;;;-1.80;99.90;;;;;;5049120;28;20113;-86
2023/03/11 07:54:22;;;;;;;28.10;10.60;;;-1.80;99.90;;;;;;5051778;28;20044;-87
2023/03/11 07:56:48;;;;;;;20.77;6.28;;;-1.70;99.90;;;;;;5066216;28;20055;-86
2023/03/11 07:59:14;;;;;;;31.83;9.10;;;-1.70;99.90;;;;;;5052346;28;20124;-86
2023/03/11 08:01:40;;;;;;;28.48;7.03;;;-1.70;99.90;;;;;;5052144;28;20048;-86
2023/03/11 08:04:10;;;;;;;20.75;6.13;;;-1.60;99.90;;;;;;5051644;28;20452;-86
2023/03/11 08:06:37;;;;;;;16.75;6.45;;;-1.50;99.90;;;;;;5051712;28;20048;-85
2023/03/11 08:09:07;;;;;;;10.48;3.55;;;-1.50;99.90;;;;;;5040492;28;20126;-86
2023/03/11 08:11:34;;;;;;;10.02;3.67;;;-1.40;99.90;;;;;;5050248;28;20044;-86
2023/03/11 08:14:00;;;;;;;8.82;3.30;;;-1.40;99.90;;;;;;5019043;28;20097;-85
2023/03/11 08:16:27;;;;;;;9.63;4.35;;;-1.30;99.90;;;;;;5078015;28;20624;-86
2023/03/11 08:18:52;;;;;;;9.73;3.78;;;-1.30;99.90;;;;;;5048403;28;20056;-86
2023/03/11 08:21:24;;;;;;;6.97;3.08;;;-1.20;99.90;;;;;;5043733;28;20060;-86
2023/03/11 08:23:50;;;;;;;9.18;2.80;;;-1.10;99.90;;;;;;5033639;28;20049;-86
2023/03/11 08:26:19;;;;;;;5.95;2.55;;;-1.00;99.90;;;;;;5047034;28;20807;-86
2023/03/11 08:28:45;;;;;;;12.35;2.72;;;-0.90;99.90;;;;;;5044648;28;20131;-85
2023/03/11 08:31:19;;;;;;;6.28;2.50;;;-0.90;99.90;;;;;;5060231;28;20052;-86
2023/03/11 08:33:48;;;;;;;19.70;7.93;;;-0.80;99.90;;;;;;5044381;28;20508;-85
2023/03/11 08:36:15;;;;;;;8.38;5.18;;;-0.80;99.90;;;;;;5048223;28;20048;-85
2023/03/11 08:38:41;;;;;;;11.55;4.13;;;-0.70;99.90;;;;;;5048017;28;20112;-84
2023/03/11 08:41:07;;;;;;;9.85;6.60;;;-0.70;99.90;;;;;;5040760;28;20102;-86
2023/03/11 08:43:33;;;;;;;4.45;2.10;;;-0.60;99.90;;;;;;5050282;28;20078;-85
2023/03/11 08:46:05;;;;;;;5.68;2.25;;;-0.50;99.90;;;;;;5042736;28;20045;-86
2023/03/11 08:48:31;;;;;;;11.70;2.25;;;-0.40;99.90;;;;;;5061277;28;20041;-86
2023/03/11 08:50:57;;;;;;;6.43;2.30;;;-0.40;99.90;;;;;;5051440;28;20048;-85
2023/03/11 08:53:23;;;;;;;5.70;2.05;;;-0.30;99.90;;;;;;5066801;28;20040;-85
2023/03/11 08:55:50;;;;;;;5.25;2.03;;;-0.20;99.90;;;;;;5057416;28;20044;-85
2023/03/11 08:58:16;;;;;;;5.43;1.80;;;-0.10;99.90;;;;;;5061088;28;20127;-85
2023/03/11 09:00:41;;;;;;;7.97;1.95;;;-0.10;99.90;;;;;;5051115;28;20094;-85
2023/03/11 09:03:07;;;;;;;6.60;1.90;;;-0.10;99.90;;;;;;5054362;28;20057;-85
2023/03/11 09:05:33;;;;;;;7.28;2.60;;;0.00;99.90;;;;;;5067392;28;20043;-85
2023/03/11 09:07:58;;;;;;;5.90;2.10;;;0.10;99.90;;;;;;5061077;28;20056;-85
2023/03/11 09:10:24;;;;;;;6.82;1.50;;;0.10;99.90;;;;;;5050585;28;20037;-86
2023/03/11 09:12:50;;;;;;;7.75;2.40;;;0.20;99.90;;;;;;5048061;28;20049;-85
2023/03/11 09:15:15;;;;;;;6.10;1.52;;;0.30;99.90;;;;;;5057984;28;20527;-85
2023/03/11 09:17:41;;;;;;;8.35;1.95;;;0.30;99.90;;;;;;5050830;28;20048;-84
2023/03/11 09:20:07;;;;;;;4.38;1.65;;;0.40;99.90;;;;;;5041603;28;20052;-85
2023/03/11 09:22:33;;;;;;;10.43;3.22;;;0.40;99.90;;;;;;5037390;28;20569;-85
2023/03/11 09:24:59;;;;;;;7.13;1.88;;;0.40;99.90;;;;;;5049980;28;20045;-85
2023/03/11 09:27:24;;;;;;;6.75;1.90;;;0.40;99.90;;;;;;5043818;28;20057;-84
2023/03/11 09:29:50;;;;;;;6.53;3.47;;;0.50;99.90;;;;;;5056606;28;20045;-83
2023/03/11 09:32:16;;;;;;;7.50;1.80;;;0.60;99.90;;;;;;5044754;28;20060;-85
2023/03/11 09:34:42;;;;;;;5.75;1.70;;;0.60;99.90;;;;;;5050783;28;20048;-83
2023/03/11 09:37:07;;;;;;;6.45;1.88;;;0.70;99.90;;;;;;5052148;28;20508;-84
2023/03/11 09:39:33;;;;;;;3.30;2.03;;;0.70;99.90;;;;;;5060526;28;20056;-84
2023/03/11 09:42:28;;;;;;;5.32;1.92;;;0.70;99.90;;;;;;5064716;28;20048;-83
2023/03/11 09:45:12;;;;;;;8.25;1.88;;;0.70;99.90;;;;;;5044125;28;20044;-84
2023/03/11 09:47:52;;;;;;;7.32;2.00;;;0.70;99.90;;;;;;5047791;28;20052;-84
2023/03/11 09:50:23;;;;;;;14.73;4.43;;;0.70;99.90;;;;;;5047978;28;20041;-84
2023/03/11 09:52:52;;;;;;;25.70;7.07;;;0.80;99.90;;;;;;5055991;28;20078;-84
2023/03/11 09:55:24;;;;;;;28.90;7.82;;;0.80;99.90;;;;;;5045782;28;20048;-83
2023/03/11 09:57:51;;;;;;;27.13;7.43;;;0.80;99.90;;;;;;5050638;28;20388;-83
2023/03/11 10:00:19;;;;;;;30.23;10.15;;;0.90;99.90;;;;;;5055689;28;20041;-82
2023/03/11 10:02:45;;;;;;;47.58;13.27;;;0.90;99.90;;;;;;5065629;28;20145;-82
2023/03/11 10:05:26;;;;;;;40.65;10.45;;;1.00;99.90;;;;;;5050459;28;20544;-82
2023/03/11 10:08:33;;;;;;;69.55;16.30;;;1.00;99.90;;;;;;5053783;28;20048;-82
2023/03/11 10:11:26;;;;;;;54.70;13.07;;;1.10;99.90;;;;;;5066685;28;20416;-81
2023/03/11 10:13:55;;;;;;;64.65;13.82;;;1.20;99.90;;;;;;5013324;28;20064;-82
2023/03/11 10:16:45;;;;;;;50.25;17.55;;;1.20;99.90;;;;;;5048625;28;20044;-81
2023/03/11 10:19:40;;;;;;;5.82;2.67;;;1.30;99.90;;;;;;5065790;28;20075;-81
2023/03/11 10:22:26;;;;;;;10.20;2.25;;;1.40;99.90;;;;;;5050227;28;20493;-82
2023/03/11 10:25:15;;;;;;;7.47;1.90;;;1.40;99.90;;;;;;5056863;28;20051;-81
2023/03/11 10:27:51;;;;;;;7.97;2.17;;;1.50;99.90;;;;;;5048320;28;20056;-81
2023/03/11 10:30:20;;;;;;;7.50;1.67;;;1.60;99.90;;;;;;5053230;28;20111;-81
2023/03/11 10:32:56;;;;;;;6.78;2.00;;;1.60;99.90;;;;;;5052826;28;20045;-82
2023/03/11 10:35:23;;;;;;;;;;;1.70;99.90;;;;;;5070003;28;20048;-81
2023/03/11 10:38:02;;;;;;;4.47;1.33;;;1.80;99.90;;;;;;5062091;28;19920;-81
2023/03/11 10:40:34;;;;;;;6.80;1.77;;;1.80;99.90;;;;;;5064461;28;20116;-81
2023/03/11 10:43:04;;;;;;;2.90;1.33;;;2.00;99.90;;;;;;5061875;28;20084;-81
2023/03/11 10:45:36;;;;;;;5.85;1.70;;;2.20;99.90;;;;;;5067276;28;20045;-82
2023/03/11 10:48:08;;;;;;;5.30;1.70;;;2.30;99.90;;;;;;5057983;28;20544;-81
2023/03/11 10:50:34;;;;;;;4.18;1.40;;;2.50;99.90;;;;;;5050349;28;20589;-81
2023/03/11 10:53:08;;;;;;;5.22;2.20;;;2.60;99.90;;;;;;5050615;28;20044;-82
2023/03/11 10:55:34;;;;;;;5.53;1.55;;;2.70;99.90;;;;;;5051757;28;20481;-82
2023/03/11 10:58:06;;;;;;;6.22;1.63;;;2.70;99.90;;;;;;5065396;28;20680;-82
2023/03/11 11:00:32;;;;;;;4.50;1.40;;;2.80;99.90;;;;;;5061418;28;20107;-81
2023/03/11 11:03:00;;;;;;;4.32;1.30;;;3.10;99.90;;;;;;5055153;28;20048;-81
2023/03/11 11:05:35;;;;;;;6.32;1.70;;;3.20;99.90;;;;;;5070370;28;20131;-82
2023/03/11 11:08:08;;;;;;;5.03;1.30;;;3.40;99.90;;;;;;5049410;28;20049;-81
2023/03/11 11:10:35;;;;;;;7.90;2.78;;;3.60;99.90;;;;;;5059084;28;20052;-81
2023/03/11 11:13:16;;;;;;;9.25;1.67;;;3.90;99.90;;;;;;5067902;28;20040;-80
2023/03/11 11:15:53;;;;;;;5.30;1.58;;;3.80;99.90;;;;;;5070120;28;20040;-81
2023/03/11 11:18:23;;;;;;;6.07;1.90;;;3.90;99.90;;;;;;5053432;28;20396;-81
2023/03/11 11:20:53;;;;;;;4.93;1.50;;;4.00;99.90;;;;;;5056419;28;20045;-82
2023/03/11 11:23:41;;;;;;;3.40;1.20;;;4.20;99.90;;;;;;5049380;28;20107;-82
2023/03/11 11:26:15;;;;;;;3.78;1.52;;;4.30;99.90;;;;;;5068406;28;20413;-82
2023/03/11 11:28:40;;;;;;;5.03;1.63;;;4.30;99.90;;;;;;5067756;28;20484;-82
2023/03/11 11:31:21;;;;;;;5.07;1.30;;;4.50;99.90;;;;;;5057065;28;20049;-82
2023/03/11 11:33:50;;;;;;;6.45;1.50;;;4.50;99.90;;;;;;5056213;28;20083;-82
2023/03/11 11:36:17;;;;;;;4.95;1.50;;;4.60;99.90;;;;;;5070924;28;20425;-82
2023/03/11 11:38:43;;;;;;;5.43;1.30;;;4.50;99.90;;;;;;5056013;28;20056;-82
2023/03/11 11:41:15;;;;;;;4.82;0.98;;;4.50;99.90;;;;;;5061363;28;20041;-82
2023/03/11 11:43:49;;;;;;;4.60;1.15;;;4.60;99.90;;;;;;5052069;28;20106;-82
2023/03/11 11:46:43;;;;;;;10.60;1.48;;;4.50;99.90;;;;;;5065966;28;20045;-83
2023/03/11 11:49:28;;;;;;;6.85;1.30;;;4.60;99.90;;;;;;5054570;28;20394;-83
2023/03/11 11:52:14;;;;;;;5.95;1.20;;;4.50;99.90;;;;;;5061929;28;20037;-84
2023/03/11 11:55:05;;;;;;;6.97;1.00;;;4.50;99.90;;;;;;5067015;28;20048;-84
2023/03/11 11:57:31;;;;;;;7.57;1.02;;;4.70;99.90;;;;;;5058917;28;20055;-84
2023/03/11 11:59:58;;;;;;;7.38;1.05;;;5.10;99.90;;;;;;5069629;28;20037;-83
2023/03/11 12:02:39;;;;;;;3.38;0.73;;;5.20;99.90;;;;;;5052573;28;20123;-83
2023/03/11 12:05:34;;;;;;;2.45;0.80;;;5.40;99.90;;;;;;5068987;28;20053;-84
2023/03/11 12:08:15;;;;;;;4.10;0.60;;;5.50;99.90;;;;;;5051367;28;20052;-84
2023/03/11 12:11:05;;;;;;;9.75;0.98;;;5.80;99.90;;;;;;5057757;28;20162;-84
2023/03/11 12:14:09;;;;;;;3.00;0.90;;;6.20;99.90;;;;;;5058425;28;20057;-83
2023/03/11 12:16:52;;;;;;;4.82;0.98;;;6.90;99.90;;;;;;5028980;28;20091;-85
2023/03/11 12:19:42;;;;;;;10.98;5.00;;;7.60;99.90;;;;;;5062998;28;20041;-85
2023/03/11 12:22:26;;;;;;;10.50;3.67;;;8.10;99.90;;;;;;5046198;28;20389;-85
2023/03/11 12:25:34;;;;;;;13.88;5.28;;;8.70;99.90;;;;;;5039006;28;20482;-85
2023/03/11 12:28:22;;;;;;;15.73;3.72;;;8.70;99.90;;;;;;5032067;28;20090;-85
2023/03/11 12:30:53;;;;;;;16.00;6.28;;;8.50;99.90;;;;;;5051750;28;20041;-85
2023/03/11 12:33:51;;;;;;;10.93;3.63;;;8.60;99.90;;;;;;5052381;28;20048;-85
2023/03/11 12:36:22;;;;;;;11.13;4.05;;;8.90;99.90;;;;;;5058531;28;20048;-85
2023/03/11 12:38:49;;;;;;;6.22;3.08;;;9.00;99.90;;;;;;5047797;28;20049;-87
2023/03/11 12:41:15;;;;;;;7.38;3.28;;;9.00;99.90;;;;;;5034703;28;20044;-87
2023/03/11 12:43:40;;;;;;;7.93;2.00;;;9.00;99.90;;;;;;5062044;28;20530;-87
2023/03/11 12:46:08;;;;;;;2.58;1.20;;;9.10;99.90;;;;;;5048611;28;20064;-87
2023/03/11 12:48:41;;;;;;;3.58;1.20;;;9.00;99.90;;;;;;5064954;28;20472;-88
2023/03/11 12:51:33;;;;;;;6.72;0.77;;;8.70;99.90;;;;;;5067032;28;20485;-89
2023/03/11 12:54:33;;;;;;;3.60;0.88;;;8.50;99.90;;;;;;5032258;28;20037;-90
2023/03/11 12:57:17;;;;;;;3.92;0.73;;;8.30;99.90;;;;;;5037930;28;20044;-88
2023/03/11 13:00:11;;;;;;;1.70;0.43;;;8.60;99.90;;;;;;5063334;28;20382;-88